sensor_id;sensor_type;location;lat;lon;timestamp;temperature;humidity
3416;DHT22;1721;51.238;9.562;2024-01-07T00:01:29;6.00;94.70
3416;DHT22;1721;51.238;9.562;2024-01-07T00:03:54;6.10;94.90
3416;DHT22;1721;51.238;9.562;2024-01-07T00:06:20;6.10;94.90
3416;DHT22;1721;51.238;9.562;2024-01-07T00:08:45;6.30;94.50
3416;DHT22;1721;51.238;9.562;2024-01-07T00:11:12;6.20;94.20
3416;DHT22;1721;51.238;9.562;2024-01-07T00:13:38;6.20;94.20
3416;DHT22;1721;51.238;9.562;2024-01-07T00:16:04;6.10;94.40
3416;DHT22;1721;51.238;9.562;2024-01-07T00:18:29;6.00;94.10
3416;DHT22;1721;51.238;9.562;2024-01-07T00:20:55;5.80;94.50
3416;DHT22;1721;51.238;9.562;2024-01-07T00:23:20;5.70;94.60
3416;DHT22;1721;51.238;9.562;2024-01-07T00:25:47;5.70;94.50
3416;DHT22;1721;51.238;9.562;2024-01-07T00:28:13;5.60;94.60
3416;DHT22;1721;51.238;9.562;2024-01-07T00:30:38;5.70;94.70
3416;DHT22;1721;51.238;9.562;2024-01-07T00:33:04;5.70;94.50
3416;DHT22;1721;51.238;9.562;2024-01-07T00:35:29;5.70;94.40
3416;DHT22;1721;51.238;9.562;2024-01-07T00:37:55;5.70;94.40
3416;DHT22;1721;51.238;9.562;2024-01-07T00:40:23;5.70;94.40
3416;DHT22;1721;51.238;9.562;2024-01-07T00:42:48;5.60;94.50
3416;DHT22;1721;51.238;9.562;2024-01-07T00:45:14;5.50;94.50
3416;DHT22;1721;51.238;9.562;2024-01-07T00:47:39;5.50;94.60
3416;DHT22;1721;51.238;9.562;2024-01-07T00:50:05;5.50;94.70
3416;DHT22;1721;51.238;9.562;2024-01-07T00:52:31;5.60;94.60
3416;DHT22;1721;51.238;9.562;2024-01-07T00:54:56;5.70;94.30
3416;DHT22;1721;51.238;9.562;2024-01-07T00:57:22;5.50;93.90
3416;DHT22;1721;51.238;9.562;2024-01-07T00:59:47;5.60;94.20
3416;DHT22;1721;51.238;9.562;2024-01-07T01:02:13;5.50;94.30
3416;DHT22;1721;51.238;9.562;2024-01-07T01:04:39;5.60;94.10
3416;DHT22;1721;51.238;9.562;2024-01-07T01:07:05;5.70;94.30
3416;DHT22;1721;51.238;9.562;2024-01-07T01:09:33;5.70;94.00
3416;DHT22;1721;51.238;9.562;2024-01-07T01:11:58;5.60;94.00
3416;DHT22;1721;51.238;9.562;2024-01-07T01:14:24;5.60;94.00
3416;DHT22;1721;51.238;9.562;2024-01-07T01:16:49;5.60;94.20
3416;DHT22;1721;51.238;9.562;2024-01-07T01:19:16;5.70;94.10
3416;DHT22;1721;51.238;9.562;2024-01-07T01:21:42;5.60;93.80
3416;DHT22;1721;51.238;9.562;2024-01-07T01:24:07;5.60;94.00
3416;DHT22;1721;51.238;9.562;2024-01-07T01:26:33;5.60;93.80
3416;DHT22;1721;51.238;9.562;2024-01-07T01:28:58;5.70;93.80
3416;DHT22;1721;51.238;9.562;2024-01-07T01:31:24;5.70;93.70
3416;DHT22;1721;51.238;9.562;2024-01-07T01:33:50;5.70;93.60
3416;DHT22;1721;51.238;9.562;2024-01-07T01:36:15;5.70;93.50
3416;DHT22;1721;51.238;9.562;2024-01-07T01:38:41;5.50;93.50
3416;DHT22;1721;51.238;9.562;2024-01-07T01:41:06;5.30;93.80
3416;DHT22;1721;51.238;9.562;2024-01-07T01:43:32;5.30;93.90
3416;DHT22;1721;51.238;9.562;2024-01-07T01:45:58;5.40;94.00
3416;DHT22;1721;51.238;9.562;2024-01-07T01:48:24;5.40;94.00
3416;DHT22;1721;51.238;9.562;2024-01-07T01:50:50;5.40;93.90
3416;DHT22;1721;51.238;9.562;2024-01-07T01:53:16;5.40;93.70
3416;DHT22;1721;51.238;9.562;2024-01-07T01:55:43;5.30;93.60
3416;DHT22;1721;51.238;9.562;2024-01-07T01:58:09;5.30;94.00
3416;DHT22;1721;51.238;9.562;2024-01-07T02:00:35;5.40;93.80
3416;DHT22;1721;51.238;9.562;2024-01-07T02:03:00;5.30;93.90
3416;DHT22;1721;51.238;9.562;2024-01-07T02:05:26;5.30;93.80
3416;DHT22;1721;51.238;9.562;2024-01-07T02:07:53;5.30;93.60
3416;DHT22;1721;51.238;9.562;2024-01-07T02:10:18;5.40;93.30
3416;DHT22;1721;51.238;9.562;2024-01-07T02:12:44;5.40;93.40
3416;DHT22;1721;51.238;9.562;2024-01-07T02:15:10;5.40;93.20
3416;DHT22;1721;51.238;9.562;2024-01-07T02:17:35;5.40;93.30
3416;DHT22;1721;51.238;9.562;2024-01-07T02:20:00;5.30;93.10
3416;DHT22;1721;51.238;9.562;2024-01-07T02:22:26;5.20;93.10
3416;DHT22;1721;51.238;9.562;2024-01-07T02:24:52;5.20;93.40
3416;DHT22;1721;51.238;9.562;2024-01-07T02:27:17;5.20;93.50
3416;DHT22;1721;51.238;9.562;2024-01-07T02:29:43;5.20;93.20
3416;DHT22;1721;51.238;9.562;2024-01-07T02:32:08;5.10;93.20
3416;DHT22;1721;51.238;9.562;2024-01-07T02:34:34;5.10;93.30
3416;DHT22;1721;51.238;9.562;2024-01-07T02:36:59;5.00;93.40
3416;DHT22;1721;51.238;9.562;2024-01-07T02:39:25;5.10;93.30
3416;DHT22;1721;51.238;9.562;2024-01-07T02:41:50;5.00;93.20
3416;DHT22;1721;51.238;9.562;2024-01-07T02:44:16;5.10;93.30
3416;DHT22;1721;51.238;9.562;2024-01-07T02:46:41;5.00;93.10
3416;DHT22;1721;51.238;9.562;2024-01-07T02:49:07;5.20;93.40
3416;DHT22;1721;51.238;9.562;2024-01-07T02:51:32;5.10;93.20
3416;DHT22;1721;51.238;9.562;2024-01-07T02:53:58;5.00;93.30
3416;DHT22;1721;51.238;9.562;2024-01-07T02:56:23;5.10;93.30
3416;DHT22;1721;51.238;9.562;2024-01-07T02:58:49;5.10;93.00
3416;DHT22;1721;51.238;9.562;2024-01-07T03:01:14;5.10;93.00
3416;DHT22;1721;51.238;9.562;2024-01-07T03:03:40;5.00;92.90
3416;DHT22;1721;51.238;9.562;2024-01-07T03:06:05;5.00;93.00
3416;DHT22;1721;51.238;9.562;2024-01-07T03:08:31;4.90;93.30
3416;DHT22;1721;51.238;9.562;2024-01-07T03:10:57;4.90;93.00
3416;DHT22;1721;51.238;9.562;2024-01-07T03:13:22;5.00;92.80
3416;DHT22;1721;51.238;9.562;2024-01-07T03:15:48;4.90;92.90
3416;DHT22;1721;51.238;9.562;2024-01-07T03:18:13;4.90;93.00
3416;DHT22;1721;51.238;9.562;2024-01-07T03:20:39;4.90;92.80
3416;DHT22;1721;51.238;9.562;2024-01-07T03:23:04;4.80;93.30
3416;DHT22;1721;51.238;9.562;2024-01-07T03:25:30;4.80;93.10
3416;DHT22;1721;51.238;9.562;2024-01-07T03:27:55;4.90;92.80
3416;DHT22;1721;51.238;9.562;2024-01-07T03:30:21;5.00;92.80
3416;DHT22;1721;51.238;9.562;2024-01-07T03:32:46;5.00;92.80
3416;DHT22;1721;51.238;9.562;2024-01-07T03:35:12;5.00;92.80
3416;DHT22;1721;51.238;9.562;2024-01-07T03:37:37;5.10;92.70
3416;DHT22;1721;51.238;9.562;2024-01-07T03:40:03;5.10;92.80
3416;DHT22;1721;51.238;9.562;2024-01-07T03:42:34;5.00;92.30
3416;DHT22;1721;51.238;9.562;2024-01-07T03:44:59;4.90;93.10
3416;DHT22;1721;51.238;9.562;2024-01-07T03:47:25;4.80;93.00
3416;DHT22;1721;51.238;9.562;2024-01-07T03:49:50;4.70;92.90
3416;DHT22;1721;51.238;9.562;2024-01-07T03:52:16;4.70;93.20
3416;DHT22;1721;51.238;9.562;2024-01-07T03:54:41;4.60;92.90
3416;DHT22;1721;51.238;9.562;2024-01-07T03:57:07;4.50;92.90
3416;DHT22;1721;51.238;9.562;2024-01-07T03:59:33;4.60;93.00
3416;DHT22;1721;51.238;9.562;2024-01-07T04:01:58;4.60;93.20
3416;DHT22;1721;51.238;9.562;2024-01-07T04:04:24;4.50;93.10
3416;DHT22;1721;51.238;9.562;2024-01-07T04:06:49;4.60;93.20
3416;DHT22;1721;51.238;9.562;2024-01-07T04:09:15;4.60;92.90
3416;DHT22;1721;51.238;9.562;2024-01-07T04:11:41;4.80;92.80
3416;DHT22;1721;51.238;9.562;2024-01-07T04:14:07;4.60;92.60
3416;DHT22;1721;51.238;9.562;2024-01-07T04:16:33;4.60;92.50
3416;DHT22;1721;51.238;9.562;2024-01-07T04:18:59;4.70;92.70
3416;DHT22;1721;51.238;9.562;2024-01-07T04:21:24;4.60;92.80
3416;DHT22;1721;51.238;9.562;2024-01-07T04:23:49;4.60;92.50
3416;DHT22;1721;51.238;9.562;2024-01-07T04:26:15;4.40;92.50
3416;DHT22;1721;51.238;9.562;2024-01-07T04:28:41;4.30;92.80
3416;DHT22;1721;51.238;9.562;2024-01-07T04:31:07;4.30;92.40
3416;DHT22;1721;51.238;9.562;2024-01-07T04:33:33;4.20;92.50
3416;DHT22;1721;51.238;9.562;2024-01-07T04:35:58;4.20;92.20
3416;DHT22;1721;51.238;9.562;2024-01-07T04:38:26;4.20;92.60
3416;DHT22;1721;51.238;9.562;2024-01-07T04:40:51;4.20;92.40
3416;DHT22;1721;51.238;9.562;2024-01-07T04:43:18;4.20;92.40
3416;DHT22;1721;51.238;9.562;2024-01-07T04:45:44;4.20;92.30
3416;DHT22;1721;51.238;9.562;2024-01-07T04:48:09;4.20;92.20
3416;DHT22;1721;51.238;9.562;2024-01-07T04:50:35;4.30;92.00
3416;DHT22;1721;51.238;9.562;2024-01-07T04:53:00;4.00;91.90
3416;DHT22;1721;51.238;9.562;2024-01-07T04:55:26;3.90;92.20
3416;DHT22;1721;51.238;9.562;2024-01-07T04:57:52;3.90;92.50
3416;DHT22;1721;51.238;9.562;2024-01-07T05:00:17;4.10;92.40
3416;DHT22;1721;51.238;9.562;2024-01-07T05:02:43;4.10;92.50
3416;DHT22;1721;51.238;9.562;2024-01-07T05:05:09;4.10;92.10
3416;DHT22;1721;51.238;9.562;2024-01-07T05:07:34;4.20;92.20
3416;DHT22;1721;51.238;9.562;2024-01-07T05:10:00;4.30;92.30
3416;DHT22;1721;51.238;9.562;2024-01-07T05:12:25;4.30;91.90
3416;DHT22;1721;51.238;9.562;2024-01-07T05:14:51;4.30;92.10
3416;DHT22;1721;51.238;9.562;2024-01-07T05:17:17;4.40;91.70
3416;DHT22;1721;51.238;9.562;2024-01-07T05:19:43;4.30;91.90
3416;DHT22;1721;51.238;9.562;2024-01-07T05:22:09;4.20;92.00
3416;DHT22;1721;51.238;9.562;2024-01-07T05:24:37;4.30;92.20
3416;DHT22;1721;51.238;9.562;2024-01-07T05:27:04;4.10;91.90
3416;DHT22;1721;51.238;9.562;2024-01-07T05:29:29;4.20;92.10
3416;DHT22;1721;51.238;9.562;2024-01-07T05:31:55;4.20;92.00
3416;DHT22;1721;51.238;9.562;2024-01-07T05:34:21;4.10;91.40
3416;DHT22;1721;51.238;9.562;2024-01-07T05:36:46;4.10;91.50
3416;DHT22;1721;51.238;9.562;2024-01-07T05:39:12;4.00;91.60
3416;DHT22;1721;51.238;9.562;2024-01-07T05:41:37;4.00;91.50
3416;DHT22;1721;51.238;9.562;2024-01-07T05:44:06;3.80;91.30
3416;DHT22;1721;51.238;9.562;2024-01-07T05:46:33;3.80;91.40
3416;DHT22;1721;51.238;9.562;2024-01-07T05:48:58;3.70;91.20
3416;DHT22;1721;51.238;9.562;2024-01-07T05:51:24;3.70;90.60
3416;DHT22;1721;51.238;9.562;2024-01-07T05:53:49;3.70;90.60
3416;DHT22;1721;51.238;9.562;2024-01-07T05:56:15;3.70;90.40
3416;DHT22;1721;51.238;9.562;2024-01-07T05:58:40;3.70;90.60
3416;DHT22;1721;51.238;9.562;2024-01-07T06:01:07;3.80;90.80
3416;DHT22;1721;51.238;9.562;2024-01-07T06:03:34;4.00;91.00
3416;DHT22;1721;51.238;9.562;2024-01-07T06:06:00;4.00;90.50
3416;DHT22;1721;51.238;9.562;2024-01-07T06:08:28;4.00;90.40
3416;DHT22;1721;51.238;9.562;2024-01-07T06:10:54;3.90;90.60
3416;DHT22;1721;51.238;9.562;2024-01-07T06:13:19;3.90;90.50
3416;DHT22;1721;51.238;9.562;2024-01-07T06:15:47;3.90;90.50
3416;DHT22;1721;51.238;9.562;2024-01-07T06:18:12;4.00;90.20
3416;DHT22;1721;51.238;9.562;2024-01-07T06:20:38;3.80;89.80
3416;DHT22;1721;51.238;9.562;2024-01-07T06:23:04;3.70;90.10
3416;DHT22;1721;51.238;9.562;2024-01-07T06:25:30;3.70;89.20
3416;DHT22;1721;51.238;9.562;2024-01-07T06:27:55;3.60;89.40
3416;DHT22;1721;51.238;9.562;2024-01-07T06:30:21;3.40;89.20
3416;DHT22;1721;51.238;9.562;2024-01-07T06:32:46;3.40;88.80
3416;DHT22;1721;51.238;9.562;2024-01-07T06:35:13;3.20;89.00
3416;DHT22;1721;51.238;9.562;2024-01-07T06:37:39;3.30;89.10
3416;DHT22;1721;51.238;9.562;2024-01-07T06:40:04;3.10;89.20
3416;DHT22;1721;51.238;9.562;2024-01-07T06:42:30;3.00;90.40
3416;DHT22;1721;51.238;9.562;2024-01-07T06:44:55;3.10;90.30
3416;DHT22;1721;51.238;9.562;2024-01-07T06:47:21;3.20;90.20
3416;DHT22;1721;51.238;9.562;2024-01-07T06:49:46;3.30;90.10
3416;DHT22;1721;51.238;9.562;2024-01-07T06:52:12;3.30;89.20
3416;DHT22;1721;51.238;9.562;2024-01-07T06:54:37;3.30;89.90
3416;DHT22;1721;51.238;9.562;2024-01-07T06:57:04;3.20;89.50
3416;DHT22;1721;51.238;9.562;2024-01-07T06:59:30;3.20;89.90
3416;DHT22;1721;51.238;9.562;2024-01-07T07:01:55;3.10;89.20
3416;DHT22;1721;51.238;9.562;2024-01-07T07:04:22;3.00;89.40
3416;DHT22;1721;51.238;9.562;2024-01-07T07:06:47;3.10;89.50
3416;DHT22;1721;51.238;9.562;2024-01-07T07:09:13;3.00;89.40
3416;DHT22;1721;51.238;9.562;2024-01-07T07:11:40;2.90;89.80
3416;DHT22;1721;51.238;9.562;2024-01-07T07:14:06;2.90;90.20
3416;DHT22;1721;51.238;9.562;2024-01-07T07:16:31;2.90;89.80
3416;DHT22;1721;51.238;9.562;2024-01-07T07:18:57;3.10;90.70
3416;DHT22;1721;51.238;9.562;2024-01-07T07:21:22;3.20;90.00
3416;DHT22;1721;51.238;9.562;2024-01-07T07:23:48;3.30;90.30
3416;DHT22;1721;51.238;9.562;2024-01-07T07:26:14;3.30;90.00
3416;DHT22;1721;51.238;9.562;2024-01-07T07:28:39;3.30;90.00
3416;DHT22;1721;51.238;9.562;2024-01-07T07:31:05;3.30;90.30
3416;DHT22;1721;51.238;9.562;2024-01-07T07:33:30;3.30;90.10
3416;DHT22;1721;51.238;9.562;2024-01-07T07:35:56;3.10;89.60
3416;DHT22;1721;51.238;9.562;2024-01-07T07:38:21;3.20;90.00
3416;DHT22;1721;51.238;9.562;2024-01-07T07:40:47;2.90;90.00
3416;DHT22;1721;51.238;9.562;2024-01-07T07:43:20;3.10;90.10
3416;DHT22;1721;51.238;9.562;2024-01-07T07:45:46;3.10;90.00
3416;DHT22;1721;51.238;9.562;2024-01-07T07:48:12;3.20;89.80
3416;DHT22;1721;51.238;9.562;2024-01-07T07:50:38;3.20;89.10
3416;DHT22;1721;51.238;9.562;2024-01-07T07:53:03;3.10;89.20
3416;DHT22;1721;51.238;9.562;2024-01-07T07:55:29;2.90;89.50
3416;DHT22;1721;51.238;9.562;2024-01-07T07:57:54;2.90;89.40
3416;DHT22;1721;51.238;9.562;2024-01-07T08:00:20;2.90;89.30
3416;DHT22;1721;51.238;9.562;2024-01-07T08:02:46;2.80;88.80
3416;DHT22;1721;51.238;9.562;2024-01-07T08:05:11;2.80;89.80
3416;DHT22;1721;51.238;9.562;2024-01-07T08:07:37;2.70;89.00
3416;DHT22;1721;51.238;9.562;2024-01-07T08:10:03;2.80;89.20
3416;DHT22;1721;51.238;9.562;2024-01-07T08:12:28;2.80;88.30
3416;DHT22;1721;51.238;9.562;2024-01-07T08:14:54;2.70;89.00
3416;DHT22;1721;51.238;9.562;2024-01-07T08:17:20;2.80;88.70
3416;DHT22;1721;51.238;9.562;2024-01-07T08:19:45;2.70;88.90
3416;DHT22;1721;51.238;9.562;2024-01-07T08:22:11;2.60;89.40
3416;DHT22;1721;51.238;9.562;2024-01-07T08:24:37;2.60;89.70
3416;DHT22;1721;51.238;9.562;2024-01-07T08:27:04;2.60;88.70
3416;DHT22;1721;51.238;9.562;2024-01-07T08:29:29;2.70;88.80
3416;DHT22;1721;51.238;9.562;2024-01-07T08:31:55;2.80;88.40
3416;DHT22;1721;51.238;9.562;2024-01-07T08:34:20;2.70;89.40
3416;DHT22;1721;51.238;9.562;2024-01-07T08:36:46;2.70;89.40
3416;DHT22;1721;51.238;9.562;2024-01-07T08:39:14;2.70;89.20
3416;DHT22;1721;51.238;9.562;2024-01-07T08:41:40;2.50;88.80
3416;DHT22;1721;51.238;9.562;2024-01-07T08:44:06;2.50;89.10
3416;DHT22;1721;51.238;9.562;2024-01-07T08:46:34;2.60;89.80
3416;DHT22;1721;51.238;9.562;2024-01-07T08:49:00;2.60;89.60
3416;DHT22;1721;51.238;9.562;2024-01-07T08:51:25;2.70;88.90
3416;DHT22;1721;51.238;9.562;2024-01-07T08:53:51;2.80;88.60
3416;DHT22;1721;51.238;9.562;2024-01-07T08:56:16;2.70;87.70
3416;DHT22;1721;51.238;9.562;2024-01-07T08:58:42;2.50;88.00
3416;DHT22;1721;51.238;9.562;2024-01-07T09:01:07;2.60;88.40
3416;DHT22;1721;51.238;9.562;2024-01-07T09:03:33;2.70;88.40
3416;DHT22;1721;51.238;9.562;2024-01-07T09:05:59;2.70;87.80
3416;DHT22;1721;51.238;9.562;2024-01-07T09:08:24;2.70;88.10
3416;DHT22;1721;51.238;9.562;2024-01-07T09:10:50;2.80;87.60
3416;DHT22;1721;51.238;9.562;2024-01-07T09:13:16;2.80;87.50
3416;DHT22;1721;51.238;9.562;2024-01-07T09:15:41;2.70;86.90
3416;DHT22;1721;51.238;9.562;2024-01-07T09:18:07;2.60;87.20
3416;DHT22;1721;51.238;9.562;2024-01-07T09:20:32;2.70;87.60
3416;DHT22;1721;51.238;9.562;2024-01-07T09:22:59;2.70;86.90
3416;DHT22;1721;51.238;9.562;2024-01-07T09:25:24;2.90;86.60
3416;DHT22;1721;51.238;9.562;2024-01-07T09:27:51;2.90;86.40
3416;DHT22;1721;51.238;9.562;2024-01-07T09:30:17;2.90;87.70
3416;DHT22;1721;51.238;9.562;2024-01-07T09:32:43;2.70;86.50
3416;DHT22;1721;51.238;9.562;2024-01-07T09:35:08;2.70;86.30
3416;DHT22;1721;51.238;9.562;2024-01-07T09:37:34;2.70;86.60
3416;DHT22;1721;51.238;9.562;2024-01-07T09:40:01;2.70;86.50
3416;DHT22;1721;51.238;9.562;2024-01-07T09:42:26;2.40;86.00
3416;DHT22;1721;51.238;9.562;2024-01-07T09:44:52;2.10;86.10
3416;DHT22;1721;51.238;9.562;2024-01-07T09:47:17;1.90;87.00
3416;DHT22;1721;51.238;9.562;2024-01-07T09:49:44;1.90;88.60
3416;DHT22;1721;51.238;9.562;2024-01-07T09:52:11;2.00;89.20
3416;DHT22;1721;51.238;9.562;2024-01-07T09:54:37;2.20;89.10
3416;DHT22;1721;51.238;9.562;2024-01-07T09:57:07;2.10;88.00
3416;DHT22;1721;51.238;9.562;2024-01-07T09:59:35;2.00;87.60
3416;DHT22;1721;51.238;9.562;2024-01-07T10:02:02;2.00;87.60
3416;DHT22;1721;51.238;9.562;2024-01-07T10:04:28;2.00;87.10
3416;DHT22;1721;51.238;9.562;2024-01-07T10:06:54;1.90;87.00
3416;DHT22;1721;51.238;9.562;2024-01-07T10:09:22;1.80;87.20
3416;DHT22;1721;51.238;9.562;2024-01-07T10:11:49;1.80;87.10
3416;DHT22;1721;51.238;9.562;2024-01-07T10:14:15;1.80;88.00
3416;DHT22;1721;51.238;9.562;2024-01-07T10:16:40;1.80;87.80
3416;DHT22;1721;51.238;9.562;2024-01-07T10:19:07;1.80;86.90
3416;DHT22;1721;51.238;9.562;2024-01-07T10:21:33;1.80;86.90
3416;DHT22;1721;51.238;9.562;2024-01-07T10:24:12;1.70;86.50
3416;DHT22;1721;51.238;9.562;2024-01-07T10:26:39;1.80;86.10
3416;DHT22;1721;51.238;9.562;2024-01-07T10:29:05;1.70;86.30
3416;DHT22;1721;51.238;9.562;2024-01-07T10:31:34;1.80;86.30
3416;DHT22;1721;51.238;9.562;2024-01-07T10:34:00;1.80;86.00
3416;DHT22;1721;51.238;9.562;2024-01-07T10:36:26;1.90;86.10
3416;DHT22;1721;51.238;9.562;2024-01-07T10:38:52;1.90;85.70
3416;DHT22;1721;51.238;9.562;2024-01-07T10:41:21;2.00;84.00
3416;DHT22;1721;51.238;9.562;2024-01-07T10:43:48;1.90;83.20
3416;DHT22;1721;51.238;9.562;2024-01-07T10:46:15;1.90;83.80
3416;DHT22;1721;51.238;9.562;2024-01-07T10:48:59;2.10;82.40
3416;DHT22;1721;51.238;9.562;2024-01-07T10:51:27;2.00;81.70
3416;DHT22;1721;51.238;9.562;2024-01-07T10:53:53;1.90;80.80
3416;DHT22;1721;51.238;9.562;2024-01-07T10:56:23;1.80;80.40
3416;DHT22;1721;51.238;9.562;2024-01-07T10:58:53;1.80;80.40
3416;DHT22;1721;51.238;9.562;2024-01-07T11:01:19;1.80;80.10
3416;DHT22;1721;51.238;9.562;2024-01-07T11:07:18;1.70;80.60
3416;DHT22;1721;51.238;9.562;2024-01-07T11:10:00;1.90;79.80
3416;DHT22;1721;51.238;9.562;2024-01-07T11:12:31;1.90;77.50
3416;DHT22;1721;51.238;9.562;2024-01-07T11:14:56;1.80;76.80
3416;DHT22;1721;51.238;9.562;2024-01-07T11:20:02;1.80;78.60
3416;DHT22;1721;51.238;9.562;2024-01-07T11:22:27;1.90;78.00
3416;DHT22;1721;51.238;9.562;2024-01-07T11:24:57;1.80;76.70
3416;DHT22;1721;51.238;9.562;2024-01-07T11:27:24;1.60;76.20
3416;DHT22;1721;51.238;9.562;2024-01-07T11:29:54;1.70;77.30
3416;DHT22;1721;51.238;9.562;2024-01-07T11:32:31;1.70;76.40
3416;DHT22;1721;51.238;9.562;2024-01-07T11:34:58;1.70;76.70
3416;DHT22;1721;51.238;9.562;2024-01-07T11:37:25;1.70;76.80
3416;DHT22;1721;51.238;9.562;2024-01-07T11:39:55;1.80;75.70
3416;DHT22;1721;51.238;9.562;2024-01-07T11:42:21;1.90;74.60
3416;DHT22;1721;51.238;9.562;2024-01-07T11:44:54;1.80;74.10
3416;DHT22;1721;51.238;9.562;2024-01-07T11:47:22;1.60;73.90
3416;DHT22;1721;51.238;9.562;2024-01-07T11:49:48;1.50;74.50
3416;DHT22;1721;51.238;9.562;2024-01-07T11:52:14;1.40;74.20
3416;DHT22;1721;51.238;9.562;2024-01-07T11:54:41;1.30;74.70
3416;DHT22;1721;51.238;9.562;2024-01-07T11:57:07;1.50;74.60
3416;DHT22;1721;51.238;9.562;2024-01-07T11:59:34;1.50;74.00
3416;DHT22;1721;51.238;9.562;2024-01-07T12:02:00;1.40;75.00
3416;DHT22;1721;51.238;9.562;2024-01-07T12:04:26;1.40;74.80
3416;DHT22;1721;51.238;9.562;2024-01-07T12:06:53;1.30;75.30
3416;DHT22;1721;51.238;9.562;2024-01-07T12:09:19;1.40;74.00
3416;DHT22;1721;51.238;9.562;2024-01-07T12:11:44;1.60;74.30
3416;DHT22;1721;51.238;9.562;2024-01-07T12:14:11;1.80;74.10
3416;DHT22;1721;51.238;9.562;2024-01-07T12:16:37;1.90;75.10
3416;DHT22;1721;51.238;9.562;2024-01-07T12:19:03;1.90;73.80
3416;DHT22;1721;51.238;9.562;2024-01-07T12:21:28;1.60;72.30
3416;DHT22;1721;51.238;9.562;2024-01-07T12:23:55;1.30;72.80
3416;DHT22;1721;51.238;9.562;2024-01-07T12:26:26;1.20;73.60
3416;DHT22;1721;51.238;9.562;2024-01-07T12:28:53;1.30;73.30
3416;DHT22;1721;51.238;9.562;2024-01-07T12:31:23;1.20;72.40
3416;DHT22;1721;51.238;9.562;2024-01-07T12:33:49;1.30;72.70
3416;DHT22;1721;51.238;9.562;2024-01-07T12:36:14;1.40;73.50
3416;DHT22;1721;51.238;9.562;2024-01-07T12:38:40;1.50;73.40
3416;DHT22;1721;51.238;9.562;2024-01-07T12:41:06;1.30;74.40
3416;DHT22;1721;51.238;9.562;2024-01-07T12:43:32;1.50;73.80
3416;DHT22;1721;51.238;9.562;2024-01-07T12:45:58;1.50;74.90
3416;DHT22;1721;51.238;9.562;2024-01-07T12:48:29;1.60;74.10
3416;DHT22;1721;51.238;9.562;2024-01-07T12:50:55;1.70;73.50
3416;DHT22;1721;51.238;9.562;2024-01-07T12:53:21;1.60;73.00
3416;DHT22;1721;51.238;9.562;2024-01-07T12:55:46;1.50;71.30
3416;DHT22;1721;51.238;9.562;2024-01-07T12:58:12;1.30;72.90
3416;DHT22;1721;51.238;9.562;2024-01-07T13:00:38;1.30;72.90
3416;DHT22;1721;51.238;9.562;2024-01-07T13:03:05;1.10;71.60
3416;DHT22;1721;51.238;9.562;2024-01-07T13:05:32;0.70;72.20
3416;DHT22;1721;51.238;9.562;2024-01-07T13:07:57;0.70;73.00
3416;DHT22;1721;51.238;9.562;2024-01-07T13:10:23;0.70;73.40
3416;DHT22;1721;51.238;9.562;2024-01-07T13:12:50;0.70;73.10
3416;DHT22;1721;51.238;9.562;2024-01-07T13:15:15;0.80;73.10
3416;DHT22;1721;51.238;9.562;2024-01-07T13:17:42;0.80;72.70
3416;DHT22;1721;51.238;9.562;2024-01-07T13:20:08;1.10;72.60
3416;DHT22;1721;51.238;9.562;2024-01-07T13:22:37;0.90;72.50
3416;DHT22;1721;51.238;9.562;2024-01-07T13:25:04;0.80;72.90
3416;DHT22;1721;51.238;9.562;2024-01-07T13:27:30;0.90;71.90
3416;DHT22;1721;51.238;9.562;2024-01-07T13:29:56;0.70;72.60
3416;DHT22;1721;51.238;9.562;2024-01-07T13:32:21;0.40;73.30
3416;DHT22;1721;51.238;9.562;2024-01-07T13:34:47;0.40;73.20
3416;DHT22;1721;51.238;9.562;2024-01-07T13:37:13;0.20;73.00
3416;DHT22;1721;51.238;9.562;2024-01-07T13:39:39;0.30;74.50
3416;DHT22;1721;51.238;9.562;2024-01-07T13:42:05;0.30;73.90
3416;DHT22;1721;51.238;9.562;2024-01-07T13:44:30;0.30;73.70
3416;DHT22;1721;51.238;9.562;2024-01-07T13:46:56;0.30;73.90
3416;DHT22;1721;51.238;9.562;2024-01-07T13:49:21;0.50;73.90
3416;DHT22;1721;51.238;9.562;2024-01-07T13:51:47;0.40;74.10
3416;DHT22;1721;51.238;9.562;2024-01-07T13:54:13;0.30;74.20
3416;DHT22;1721;51.238;9.562;2024-01-07T13:56:43;0.30;74.50
3416;DHT22;1721;51.238;9.562;2024-01-07T13:59:10;0.10;75.90
3416;DHT22;1721;51.238;9.562;2024-01-07T14:01:36;0.30;75.40
3416;DHT22;1721;51.238;9.562;2024-01-07T14:04:01;0.30;75.00
3416;DHT22;1721;51.238;9.562;2024-01-07T14:06:28;0.20;75.70
3416;DHT22;1721;51.238;9.562;2024-01-07T14:08:53;0.40;75.50
3416;DHT22;1721;51.238;9.562;2024-01-07T14:11:20;0.40;75.60
3416;DHT22;1721;51.238;9.562;2024-01-07T14:13:45;0.60;75.10
3416;DHT22;1721;51.238;9.562;2024-01-07T14:16:12;0.70;75.80
3416;DHT22;1721;51.238;9.562;2024-01-07T14:18:37;0.70;75.60
3416;DHT22;1721;51.238;9.562;2024-01-07T14:21:03;0.50;75.20
3416;DHT22;1721;51.238;9.562;2024-01-07T14:23:28;0.70;75.80
3416;DHT22;1721;51.238;9.562;2024-01-07T14:25:56;0.60;75.60
3416;DHT22;1721;51.238;9.562;2024-01-07T14:28:22;0.70;75.40
3416;DHT22;1721;51.238;9.562;2024-01-07T14:30:48;0.80;74.70
3416;DHT22;1721;51.238;9.562;2024-01-07T14:33:14;0.50;74.00
3416;DHT22;1721;51.238;9.562;2024-01-07T14:35:40;0.40;74.90
3416;DHT22;1721;51.238;9.562;2024-01-07T14:38:05;0.40;75.10
3416;DHT22;1721;51.238;9.562;2024-01-07T14:40:31;0.30;74.60
3416;DHT22;1721;51.238;9.562;2024-01-07T14:42:56;0.30;75.70
3416;DHT22;1721;51.238;9.562;2024-01-07T14:45:26;0.20;75.90
3416;DHT22;1721;51.238;9.562;2024-01-07T14:47:53;0.40;75.90
3416;DHT22;1721;51.238;9.562;2024-01-07T14:50:19;0.50;75.80
3416;DHT22;1721;51.238;9.562;2024-01-07T14:52:45;0.30;76.40
3416;DHT22;1721;51.238;9.562;2024-01-07T14:55:10;0.50;76.10
3416;DHT22;1721;51.238;9.562;2024-01-07T14:57:36;0.50;75.20
3416;DHT22;1721;51.238;9.562;2024-01-07T15:00:02;0.50;75.00
3416;DHT22;1721;51.238;9.562;2024-01-07T15:02:28;0.40;75.50
3416;DHT22;1721;51.238;9.562;2024-01-07T15:04:54;0.40;76.00
3416;DHT22;1721;51.238;9.562;2024-01-07T15:07:20;0.50;76.00
3416;DHT22;1721;51.238;9.562;2024-01-07T15:09:45;0.50;75.00
3416;DHT22;1721;51.238;9.562;2024-01-07T15:12:11;0.20;74.90
3416;DHT22;1721;51.238;9.562;2024-01-07T15:14:37;0.30;75.80
3416;DHT22;1721;51.238;9.562;2024-01-07T15:17:03;0.50;76.00
3416;DHT22;1721;51.238;9.562;2024-01-07T15:19:28;0.50;75.30
3416;DHT22;1721;51.238;9.562;2024-01-07T15:21:55;0.40;75.80
3416;DHT22;1721;51.238;9.562;2024-01-07T15:24:21;0.30;75.80
3416;DHT22;1721;51.238;9.562;2024-01-07T15:26:46;0.30;75.90
3416;DHT22;1721;51.238;9.562;2024-01-07T15:29:12;0.40;76.20
3416;DHT22;1721;51.238;9.562;2024-01-07T15:31:37;0.50;75.80
3416;DHT22;1721;51.238;9.562;2024-01-07T15:34:03;0.50;75.60
3416;DHT22;1721;51.238;9.562;2024-01-07T15:36:28;0.50;76.50
3416;DHT22;1721;51.238;9.562;2024-01-07T15:38:54;0.40;75.40
3416;DHT22;1721;51.238;9.562;2024-01-07T15:41:20;0.50;75.60
3416;DHT22;1721;51.238;9.562;2024-01-07T15:43:46;0.60;75.80
3416;DHT22;1721;51.238;9.562;2024-01-07T15:46:11;0.70;75.80
3416;DHT22;1721;51.238;9.562;2024-01-07T15:48:37;0.90;75.20
3416;DHT22;1721;51.238;9.562;2024-01-07T15:51:02;0.80;74.70
3416;DHT22;1721;51.238;9.562;2024-01-07T15:53:29;0.90;75.10
3416;DHT22;1721;51.238;9.562;2024-01-07T15:56:01;0.80;75.00
3416;DHT22;1721;51.238;9.562;2024-01-07T15:58:28;0.80;75.10
3416;DHT22;1721;51.238;9.562;2024-01-07T16:00:57;0.60;74.70
3416;DHT22;1721;51.238;9.562;2024-01-07T16:03:23;0.60;75.60
3416;DHT22;1721;51.238;9.562;2024-01-07T16:05:50;0.60;75.40
3416;DHT22;1721;51.238;9.562;2024-01-07T16:08:15;0.70;74.70
3416;DHT22;1721;51.238;9.562;2024-01-07T16:10:41;0.60;75.30
3416;DHT22;1721;51.238;9.562;2024-01-07T16:13:07;0.60;75.70
3416;DHT22;1721;51.238;9.562;2024-01-07T16:15:32;0.60;75.60